createdAt,value
2019-02-21T00:03:33.221Z,20.27
2019-02-21T00:07:38.561Z,20.93
2019-02-21T00:11:43.988Z,21.63
2019-02-21T00:15:49.426Z,21.00
2019-02-21T00:19:54.785Z,22.63
2019-02-21T00:24:00.203Z,22.70
2019-02-21T00:28:05.597Z,25.60
2019-02-21T00:32:11.055Z,25.17
2019-02-21T00:36:16.393Z,28.10
2019-02-21T00:40:22.107Z,26.70
2019-02-21T00:44:27.772Z,26.87
2019-02-21T00:48:33.231Z,28.87
2019-02-21T00:52:38.739Z,29.73
2019-02-21T00:56:44.048Z,30.13
2019-02-21T01:00:49.451Z,31.00
2019-02-21T01:04:54.957Z,31.53
2019-02-21T01:09:00.494Z,29.43
2019-02-21T01:13:05.931Z,30.80
2019-02-21T01:17:11.305Z,30.33
2019-02-21T01:21:16.552Z,29.17
2019-02-21T01:25:21.977Z,28.30
2019-02-21T01:29:27.691Z,27.53
2019-02-21T01:33:33.397Z,27.07
2019-02-21T01:37:38.900Z,27.17
2019-02-21T01:41:44.423Z,25.77
2019-02-21T01:45:49.756Z,24.37
2019-02-21T01:49:55.161Z,24.77
2019-02-21T01:54:00.566Z,25.17
2019-02-21T01:58:05.930Z,25.63
2019-02-21T02:02:11.798Z,27.90
2019-02-21T02:06:17.231Z,25.57
2019-02-21T02:10:22.624Z,26.90
2019-02-21T02:14:28.007Z,24.30
2019-02-21T02:18:33.411Z,23.23
2019-02-21T02:22:39.450Z,22.50
2019-02-21T02:26:44.931Z,22.70
2019-02-21T02:30:50.708Z,24.23
2019-02-21T02:34:56.058Z,26.00
2019-02-21T02:39:01.841Z,25.80
2019-02-21T02:43:07.321Z,26.03
2019-02-21T02:47:13.001Z,29.50
2019-02-21T02:51:18.362Z,28.23
2019-02-21T02:55:23.692Z,32.83
2019-02-21T02:59:40.367Z,32.10
2019-02-21T03:03:36.723Z,31.67
2019-02-21T03:07:42.013Z,32.17
2019-02-21T03:11:47.429Z,32.10
2019-02-21T03:15:52.857Z,34.00
2019-02-21T03:19:59.138Z,33.73
2019-02-21T03:24:05.040Z,34.27
2019-02-21T03:28:10.339Z,36.50
2019-02-21T03:32:15.668Z,34.37
2019-02-21T03:36:21.147Z,36.67
2019-02-21T03:40:26.574Z,33.70
2019-02-21T03:44:31.897Z,34.40
2019-02-21T03:48:37.505Z,34.43
2019-02-21T03:52:43.003Z,35.93
2019-02-21T03:56:48.796Z,37.00
2019-02-21T04:00:54.260Z,34.40
2019-02-21T04:04:59.678Z,34.63
2019-02-21T04:09:08.351Z,32.13
2019-02-21T04:13:15.285Z,30.17
2019-02-21T04:17:20.767Z,28.20
2019-02-21T04:21:26.728Z,25.47
2019-02-21T04:25:32.121Z,24.53
2019-02-21T04:29:37.875Z,26.13
2019-02-21T04:33:43.190Z,25.33
2019-02-21T04:37:48.640Z,24.67
2019-02-21T04:41:54.253Z,24.93
2019-02-21T04:46:00.000Z,25.00
2019-02-21T04:50:05.809Z,24.03
2019-02-21T04:54:11.225Z,25.37
2019-02-21T04:58:16.585Z,23.40
2019-02-21T05:02:29.095Z,23.93
2019-02-21T05:06:29.553Z,25.17
2019-02-21T05:10:34.993Z,25.67
2019-02-21T05:14:40.334Z,27.53
2019-02-21T05:18:46.175Z,27.30
2019-02-21T05:22:51.695Z,28.43
2019-02-21T05:27:03.730Z,29.87
2019-02-21T05:31:31.370Z,28.20
2019-02-21T05:36:14.222Z,29.80
2019-02-21T05:40:37.156Z,28.70
2019-02-21T05:44:47.430Z,29.77
2019-02-21T05:49:04.841Z,31.27
2019-02-21T05:53:33.747Z,31.07
2019-02-21T05:57:52.314Z,31.80
2019-02-21T06:02:23.076Z,32.07
2019-02-21T06:06:48.379Z,31.80
2019-02-21T06:11:11.770Z,31.43
2019-02-21T06:15:32.009Z,32.60
2019-02-21T06:19:50.138Z,35.10
2019-02-21T06:24:23.797Z,34.00
2019-02-21T06:28:32.570Z,34.70
2019-02-21T06:32:40.669Z,37.13
2019-02-21T06:36:45.945Z,36.00
2019-02-21T06:40:51.234Z,37.63
2019-02-21T06:44:56.570Z,37.70
2019-02-21T06:49:02.067Z,40.53
2019-02-21T06:53:07.504Z,41.17
2019-02-21T06:57:12.829Z,44.73
2019-02-21T07:01:26.451Z,43.37
2019-02-21T07:05:25.495Z,48.47
2019-02-21T07:09:30.990Z,51.23
2019-02-21T07:13:36.330Z,52.63
2019-02-21T07:17:49.195Z,57.13
2019-02-21T07:21:49.316Z,59.50
2019-02-21T07:26:06.957Z,60.87
2019-02-21T07:30:19.984Z,66.17
2019-02-21T07:34:19.897Z,69.23
2019-02-21T07:38:25.576Z,73.47
2019-02-21T07:42:31.294Z,76.60
2019-02-21T07:46:36.839Z,79.60
2019-02-21T07:50:42.320Z,75.70
2019-02-21T07:54:50.857Z,82.67
2019-02-21T07:58:57.577Z,79.73
2019-02-21T08:03:02.381Z,84.13
2019-02-21T08:07:07.727Z,83.63
2019-02-21T08:11:17.180Z,86.17
2019-02-21T08:15:22.612Z,90.80
2019-02-21T08:19:28.087Z,92.50
2019-02-21T08:23:33.580Z,94.13
2019-02-21T08:27:38.953Z,101.83
2019-02-21T08:31:44.283Z,96.70
2019-02-21T08:35:49.648Z,98.60
2019-02-21T08:39:55.143Z,96.47
2019-02-21T08:44:00.526Z,93.07
2019-02-21T08:48:06.063Z,89.87
2019-02-21T08:52:12.696Z,83.13
2019-02-21T08:56:18.563Z,69.20
2019-02-21T09:00:24.027Z,55.83
2019-02-21T09:04:29.840Z,49.13
2019-02-21T09:08:37.035Z,42.27
2019-02-21T09:12:47.917Z,37.97
2019-02-21T09:16:50.405Z,33.53
2019-02-21T09:20:55.899Z,34.10
2019-02-21T09:25:02.810Z,33.17
2019-02-21T09:29:08.542Z,33.77
2019-02-21T09:33:17.334Z,33.70
2019-02-21T09:37:21.163Z,32.77
2019-02-21T09:41:28.704Z,30.67
2019-02-21T09:45:34.020Z,31.17
2019-02-21T09:49:39.279Z,31.57
2019-02-21T09:53:44.720Z,29.73
2019-02-21T09:57:50.163Z,28.57
2019-02-21T10:01:57.560Z,30.27
2019-02-21T10:06:02.619Z,28.33
2019-02-21T10:10:11.669Z,29.30
2019-02-21T10:14:17.019Z,30.23
2019-02-21T10:18:22.376Z,29.60
2019-02-21T10:22:27.737Z,27.67
2019-02-21T10:26:33.205Z,28.70
2019-02-21T10:30:38.648Z,29.03
2019-02-21T10:34:44.103Z,27.97
2019-02-21T10:38:49.721Z,29.97
2019-02-21T10:42:55.511Z,27.23
2019-02-21T10:47:01.015Z,27.33
2019-02-21T10:51:06.482Z,26.20
2019-02-21T10:55:12.144Z,25.43
2019-02-21T10:59:17.679Z,26.27
2019-02-21T11:03:23.055Z,25.37
2019-02-21T11:07:28.499Z,22.53
2019-02-21T11:11:33.917Z,25.03
2019-02-21T11:15:41.934Z,23.37
2019-02-21T11:19:46.708Z,21.77
2019-02-21T11:23:52.230Z,21.13
2019-02-21T11:27:57.678Z,21.00
2019-02-21T11:32:03.073Z,19.77
2019-02-21T11:36:08.549Z,19.67
2019-02-21T11:40:16.132Z,19.83
2019-02-21T11:44:21.693Z,19.03
2019-02-21T11:48:26.954Z,19.00
2019-02-21T11:52:32.435Z,20.10
2019-02-21T11:56:37.846Z,20.03
2019-02-21T12:00:43.227Z,21.00
2019-02-21T12:04:48.594Z,16.43
2019-02-21T12:08:54.101Z,16.53
2019-02-21T12:12:59.539Z,15.27
2019-02-21T12:17:04.972Z,16.70
2019-02-21T12:21:11.686Z,17.10
2019-02-21T12:25:17.817Z,13.33
2019-02-21T12:29:23.418Z,13.57
2019-02-21T12:33:28.838Z,12.90
2019-02-21T12:37:34.294Z,12.70
2019-02-21T12:41:39.754Z,12.90
2019-02-21T12:45:45.406Z,13.40
2019-02-21T12:49:50.710Z,12.27
2019-02-21T12:53:56.217Z,12.40
2019-02-21T12:58:01.605Z,13.60
2019-02-21T13:02:07.051Z,13.53
2019-02-21T13:06:12.497Z,14.17
2019-02-21T13:10:19.111Z,15.17
2019-02-21T13:14:24.617Z,14.97
2019-02-21T13:18:30.178Z,14.63
2019-02-21T13:22:35.726Z,14.67
2019-02-21T13:26:41.102Z,14.77
2019-02-21T13:30:46.645Z,14.83
2019-02-21T13:34:52.147Z,15.07
2019-02-21T13:38:58.057Z,15.97
2019-02-21T13:43:03.326Z,15.47
2019-02-21T13:47:08.901Z,16.83
2019-02-21T13:51:14.434Z,16.50
2019-02-21T13:55:19.923Z,17.07
2019-02-21T13:59:25.247Z,16.23
2019-02-21T14:03:30.733Z,15.63
2019-02-21T14:07:37.353Z,17.33
2019-02-21T14:11:42.954Z,16.53
2019-02-21T14:15:48.388Z,16.80
2019-02-21T14:19:53.766Z,16.50
2019-02-21T14:23:59.184Z,17.27
2019-02-21T14:28:04.618Z,16.37
2019-02-21T14:32:10.406Z,15.93
2019-02-21T14:36:19.105Z,16.67
2019-02-21T14:40:23.372Z,16.57
2019-02-21T14:44:28.765Z,17.40
2019-02-21T14:48:34.646Z,15.57
2019-02-21T14:52:40.108Z,16.03
2019-02-21T14:56:45.536Z,16.63
2019-02-21T15:00:50.955Z,16.73
2019-02-21T15:04:56.403Z,16.73
2019-02-21T15:09:01.837Z,17.00
2019-02-21T15:13:07.274Z,15.80
2019-02-21T15:17:12.950Z,16.70
2019-02-21T15:21:18.436Z,17.93
2019-02-21T15:25:23.873Z,16.97
2019-02-21T15:29:29.327Z,17.13
2019-02-21T15:33:34.913Z,17.67
2019-02-21T15:37:40.365Z,16.83
2019-02-21T15:41:45.986Z,17.03
2019-02-21T15:45:51.260Z,18.20
2019-02-21T15:49:56.824Z,17.83
2019-02-21T15:54:02.316Z,19.00
2019-02-21T15:58:07.790Z,18.47
2019-02-21T16:02:13.159Z,17.73
2019-02-21T16:06:18.626Z,19.33
2019-02-21T16:10:24.364Z,20.77
2019-02-21T16:14:30.060Z,20.43
2019-02-21T16:18:35.505Z,21.10
2019-02-21T16:22:40.954Z,18.93
2019-02-21T16:26:46.357Z,20.33
2019-02-21T16:30:51.761Z,19.77
2019-02-21T16:34:57.284Z,18.40
2019-02-21T16:39:04.426Z,19.10
2019-02-21T16:43:10.231Z,16.80
2019-02-21T16:47:15.656Z,16.37
2019-02-21T16:51:22.245Z,18.10
2019-02-21T16:55:28.233Z,17.97
2019-02-21T16:59:33.552Z,19.37
2019-02-21T17:03:38.954Z,20.70
2019-02-21T17:07:44.743Z,20.43
2019-02-21T17:11:50.136Z,19.67
2019-02-21T17:15:55.612Z,19.73
2019-02-21T17:20:01.424Z,23.23
2019-02-21T17:24:06.919Z,21.60
2019-02-21T17:28:12.344Z,22.70
2019-02-21T17:32:17.699Z,21.27
2019-02-21T17:36:23.315Z,22.80
2019-02-21T17:40:28.767Z,22.40
2019-02-21T17:44:34.333Z,20.97
2019-02-21T17:48:39.786Z,22.17
2019-02-21T17:52:45.490Z,21.13
2019-02-21T17:56:51.095Z,21.50
2019-02-21T18:00:56.564Z,22.13
2019-02-21T18:05:02.052Z,23.00
2019-02-21T18:09:08.628Z,24.13
2019-02-21T18:13:14.046Z,22.20
2019-02-21T18:17:19.470Z,24.83
2019-02-21T18:21:24.940Z,24.13
2019-02-21T18:25:45.207Z,24.50
2019-02-21T18:29:51.022Z,21.80
2019-02-21T18:33:57.065Z,25.07
2019-02-21T18:38:02.506Z,23.93
2019-02-21T18:42:08.118Z,24.63
2019-02-21T18:46:13.879Z,29.90
2019-02-21T18:50:19.657Z,26.80
2019-02-21T18:54:25.408Z,24.50
2019-02-21T18:58:30.896Z,23.73
2019-02-21T19:02:36.379Z,24.33
2019-02-21T19:06:41.923Z,23.80
2019-02-21T19:10:47.781Z,24.90
2019-02-21T19:14:53.177Z,25.40
2019-02-21T19:18:58.850Z,25.60
2019-02-21T19:23:04.373Z,26.97
2019-02-21T19:27:09.955Z,27.57
2019-02-21T19:31:19.213Z,25.43
2019-02-21T19:35:24.927Z,25.00
2019-02-21T19:39:30.300Z,27.43
2019-02-21T19:43:35.822Z,27.57
2019-02-21T19:47:41.176Z,27.23
2019-02-21T19:51:46.797Z,26.67
2019-02-21T19:55:52.279Z,26.40
2019-02-21T19:59:57.821Z,26.63
2019-02-21T20:04:03.163Z,27.60
2019-02-21T20:08:09.182Z,26.70
2019-02-21T20:12:14.597Z,26.33
2019-02-21T20:16:20.256Z,27.57
2019-02-21T20:20:25.706Z,26.70
2019-02-21T20:24:31.371Z,30.40
2019-02-21T20:28:36.909Z,24.63
2019-02-21T20:32:42.413Z,24.97
2019-02-21T20:36:50.954Z,23.03
2019-02-21T20:40:54.973Z,24.80
2019-02-21T20:45:01.836Z,22.87
2019-02-21T20:49:07.199Z,24.80
2019-02-21T20:53:12.678Z,24.87
2019-02-21T20:57:21.046Z,26.20
2019-02-21T21:01:26.588Z,26.07
2019-02-21T21:05:32.211Z,26.43
2019-02-21T21:09:37.680Z,28.27
2019-02-21T21:13:44.129Z,29.03
2019-02-21T21:17:49.722Z,27.80
2019-02-21T21:21:55.036Z,25.90
2019-02-21T21:26:00.407Z,26.87
2019-02-21T21:30:06.527Z,29.40
2019-02-21T21:34:12.221Z,28.13
2019-02-21T21:38:24.194Z,28.57
2019-02-21T21:42:24.608Z,28.17
2019-02-21T21:46:30.069Z,30.40
2019-02-21T21:50:35.634Z,30.63
2019-02-21T21:54:41.170Z,35.83
2019-02-21T21:58:46.536Z,33.23
2019-02-21T22:02:51.936Z,35.57
2019-02-21T22:06:57.364Z,34.67
2019-02-21T22:11:02.795Z,34.07
2019-02-21T22:15:09.804Z,30.97
2019-02-21T22:19:15.185Z,33.83
2019-02-21T22:23:20.868Z,39.30
2019-02-21T22:27:26.591Z,37.13
2019-02-21T22:31:31.945Z,33.17
2019-02-21T22:35:37.399Z,37.87
2019-02-21T22:39:42.734Z,38.93
2019-02-21T22:43:48.102Z,37.87
2019-02-21T22:47:53.526Z,36.47
2019-02-21T22:51:58.987Z,40.27
2019-02-21T22:56:04.573Z,37.77
2019-02-21T23:00:59.528Z,37.77
2019-02-21T23:06:00.877Z,39.87
2019-02-21T23:10:06.585Z,38.83
2019-02-21T23:14:12.180Z,37.13
2019-02-21T23:18:17.589Z,37.77
2019-02-21T23:22:22.955Z,39.47
2019-02-21T23:26:28.806Z,41.03
2019-02-21T23:30:34.481Z,46.13
2019-02-21T23:34:43.026Z,44.40
2019-02-21T23:38:48.474Z,45.37
2019-02-21T23:42:53.883Z,46.47
2019-02-21T23:46:59.315Z,45.57
2019-02-21T23:51:04.664Z,38.83
2019-02-21T23:55:10.112Z,37.03
2019-02-21T23:59:16.122Z,36.40
